TimeCST,TemperatureF,Dew PointF,Humidity,Sea Level PressureIn,VisibilityMPH,Wind Direction,Wind SpeedMPH,Gust SpeedMPH,PrecipitationIn,Events,Conditions,WindDirDegrees,DateUTC
12:52 AM,19.0,12.0,74,30.18,10.0,WNW,11.5,-,N/A,,Partly Cloudy,300,2012-12-22 06:52:00
1:52 AM,18.0,10.9,74,30.18,10.0,WNW,10.4,-,N/A,,Partly Cloudy,300,2012-12-22 07:52:00
2:52 AM,17.6,10.4,73,30.16,10.0,West,6.9,-,N/A,,Partly Cloudy,280,2012-12-22 08:52:00
3:52 AM,17.1,10.9,77,30.18,10.0,West,4.6,-,N/A,,Partly Cloudy,280,2012-12-22 09:52:00
4:52 AM,16.0,10.9,81,30.20,10.0,WNW,6.9,-,N/A,,Partly Cloudy,290,2012-12-22 10:52:00
5:52 AM,15.8,10.4,79,30.17,10.0,WNW,8.1,-,N/A,,Partly Cloudy,290,2012-12-22 11:52:00
6:52 AM,16.0,10.0,77,30.22,10.0,WNW,3.5,-,N/A,,Partly Cloudy,290,2012-12-22 12:52:00
7:52 AM,15.1,10.0,80,30.21,10.0,WSW,3.5,-,N/A,,Partly Cloudy,250,2012-12-22 13:52:00
8:52 AM,18.0,10.0,71,30.20,10.0,West,5.8,-,N/A,,Mostly Cloudy,260,2012-12-22 14:52:00
9:52 AM,21.9,10.9,63,30.20,10.0,West,5.8,-,N/A,,Mostly Cloudy,270,2012-12-22 15:52:00
10:52 AM,24.1,12.9,62,30.17,10.0,West,3.5,-,N/A,,Scattered Clouds,260,2012-12-22 16:52:00
11:52 AM,28.0,14.0,56,30.14,10.0,West,5.8,-,N/A,,Scattered Clouds,270,2012-12-22 17:52:00
12:52 PM,27.0,16.0,63,30.12,10.0,SW,5.8,-,N/A,,Scattered Clouds,220,2012-12-22 18:52:00
1:52 PM,28.0,15.1,58,30.10,10.0,SW,8.1,-,N/A,,Scattered Clouds,230,2012-12-22 19:52:00
2:52 PM,28.0,18.0,66,30.08,10.0,SW,4.6,-,N/A,,Mostly Cloudy,230,2012-12-22 20:52:00
3:52 PM,28.0,18.0,66,30.06,10.0,SW,6.9,-,N/A,,Mostly Cloudy,230,2012-12-22 21:52:00
4:52 PM,27.0,18.0,69,30.07,10.0,SW,3.5,-,N/A,,Scattered Clouds,230,2012-12-22 22:52:00
5:52 PM,25.0,17.1,72,30.05,10.0,Calm,Calm,-,N/A,,Partly Cloudy,0,2012-12-22 23:52:00
6:52 PM,25.0,17.1,72,30.04,10.0,Calm,Calm,-,N/A,,Partly Cloudy,0,2012-12-23 00:52:00
7:52 PM,24.1,17.1,75,30.01,10.0,Calm,Calm,-,N/A,,Partly Cloudy,0,2012-12-23 01:52:00
8:52 PM,23.0,17.1,78,30.00,10.0,SW,4.6,-,N/A,,Clear,230,2012-12-23 02:52:00
9:52 PM,23.0,18.0,81,30.00,10.0,SW,9.2,-,N/A,,Clear,220,2012-12-23 03:52:00
10:52 PM,24.1,19.0,81,29.99,10.0,WSW,5.8,-,N/A,,Clear,240,2012-12-23 04:52:00
11:52 PM,24.1,19.0,81,29.97,10.0,WSW,6.9,-,N/A,,Clear,250,2012-12-23 05:52:00